Time;durP1;ratioP1;P1;durP2;ratioP2;P2;SDS_P1;SDS_P2;PMS_P1;PMS_P2;Temp;Humidity;BMP_temperature;BMP_pressure;BME280_temperature;BME280_humidity;BME280_pressure;Samples;Min_cycle;Max_cycle;Signal;HPM_P1;HPM_P2
2022/12/19 00:00:05;;;;;;;346.73;145.45;;;-2.20;99.90;;;;;;5057218;28;20087;-68
2022/12/19 00:02:38;;;;;;;351.00;146.15;;;-2.30;99.90;;;;;;5056961;28;20072;-68
2022/12/19 00:05:04;;;;;;;341.38;140.50;;;-2.30;99.90;;;;;;5057092;28;20482;-68
2022/12/19 00:07:30;;;;;;;343.88;141.82;;;-2.40;99.90;;;;;;5057029;28;20029;-68
2022/12/19 00:09:56;;;;;;;337.73;141.70;;;-2.20;99.90;;;;;;5067610;28;20351;-68
2022/12/19 00:12:23;;;;;;;346.88;148.63;;;-2.20;99.90;;;;;;5076835;28;20028;-68
2022/12/19 00:14:49;;;;;;;356.33;151.52;;;-2.30;99.90;;;;;;5076617;28;20031;-68
2022/12/19 00:17:14;;;;;;;360.63;152.25;;;-2.40;99.90;;;;;;5076584;28;20044;-68
2022/12/19 00:19:40;;;;;;;387.42;160.02;;;-2.50;99.90;;;;;;5075929;28;20115;-68
2022/12/19 00:22:06;;;;;;;408.27;169.20;;;-2.70;99.90;;;;;;5075467;28;20033;-68
2022/12/19 00:24:32;;;;;;;383.52;163.73;;;-2.70;99.90;;;;;;5076733;28;20428;-68
2022/12/19 00:26:58;;;;;;;370.60;155.10;;;-2.70;99.90;;;;;;5076578;28;20029;-68
2022/12/19 00:29:24;;;;;;;353.45;146.57;;;-2.60;99.90;;;;;;5076598;28;20086;-68
2022/12/19 00:31:51;;;;;;;300.90;127.88;;;-2.50;99.90;;;;;;5075198;28;20027;-68
2022/12/19 00:34:17;;;;;;;273.80;116.15;;;-2.50;99.90;;;;;;5076517;28;20458;-68
2022/12/19 00:36:42;;;;;;;269.88;116.40;;;-2.50;99.90;;;;;;5075196;28;20028;-68
2022/12/19 00:39:10;;;;;;;286.58;121.18;;;-2.60;99.90;;;;;;5075031;28;20034;-68
2022/12/19 00:41:39;;;;;;;291.27;125.53;;;-2.60;99.90;;;;;;5075238;28;20032;-68
2022/12/19 00:44:08;;;;;;;283.90;122.55;;;-2.70;99.90;;;;;;5075132;28;20032;-68
2022/12/19 00:46:35;;;;;;;274.42;118.00;;;-2.70;99.90;;;;;;5076205;28;20479;-68
2022/12/19 00:49:02;;;;;;;261.02;109.05;;;-2.60;99.90;;;;;;5076131;28;20258;-68
2022/12/19 00:51:32;;;;;;;211.70;96.65;;;-2.60;99.90;;;;;;5061885;28;20031;-68
2022/12/19 00:53:58;;;;;;;241.85;103.70;;;-2.40;99.90;;;;;;5054888;28;20107;-68
2022/12/19 00:56:26;;;;;;;243.23;106.25;;;-2.50;99.90;;;;;;5056144;28;20029;-68
2022/12/19 00:58:53;;;;;;;255.07;107.93;;;-2.60;99.90;;;;;;5054986;28;20056;-68
2022/12/19 01:01:32;;;;;;;284.00;117.88;;;-2.50;99.90;;;;;;5055639;28;20105;-68
2022/12/19 01:04:00;;;;;;;290.00;123.27;;;-2.60;99.90;;;;;;5056034;28;20467;-68
2022/12/19 01:06:26;;;;;;;266.05;114.03;;;-2.60;99.90;;;;;;5055895;28;20351;-68
2022/12/19 01:08:52;;;;;;;264.83;112.28;;;-2.70;99.90;;;;;;5057514;28;20024;-68
2022/12/19 01:12:44;;;;;;;244.80;104.82;;;-2.80;99.90;;;;;;5074617;28;20039;-68
2022/12/19 01:14:06;;;;;;;250.60;103.72;;;-2.70;99.90;;;;;;5075361;28;20032;-68
2022/12/19 01:16:32;;;;;;;250.70;108.03;;;-2.80;99.90;;;;;;5075500;28;20028;-68
2022/12/19 01:18:58;;;;;;;259.77;108.03;;;-2.90;99.90;;;;;;5074355;28;20063;-68
2022/12/19 01:21:24;;;;;;;264.58;110.05;;;-2.90;99.90;;;;;;5074143;28;20067;-68
2022/12/19 01:23:51;;;;;;;259.73;107.20;;;-2.90;99.90;;;;;;5074185;28;20083;-68
2022/12/19 01:26:17;;;;;;;294.58;121.85;;;-3.00;99.90;;;;;;5073991;28;20534;-68
2022/12/19 01:28:43;;;;;;;286.23;122.55;;;-3.10;99.90;;;;;;5074243;28;20064;-68
2022/12/19 01:31:09;;;;;;;289.17;122.90;;;-3.10;99.90;;;;;;5075255;28;20143;-68
2022/12/19 01:33:35;;;;;;;277.85;116.10;;;-3.10;99.90;;;;;;5074064;28;20028;-68
2022/12/19 01:36:06;;;;;;;271.80;118.35;;;-3.10;99.90;;;;;;5075249;28;20032;-68
2022/12/19 01:38:34;;;;;;;253.80;106.85;;;-3.10;99.90;;;;;;5073886;28;20035;-68
2022/12/19 01:41:01;;;;;;;268.45;112.40;;;-2.90;99.90;;;;;;5073894;28;20029;-68
2022/12/19 01:43:51;;;;;;;280.48;117.32;;;-3.00;99.90;;;;;;5073877;28;20559;-68
2022/12/19 01:46:29;;;;;;;273.13;114.75;;;-3.10;99.90;;;;;;5073918;28;20478;-68
2022/12/19 01:48:56;;;;;;;263.50;110.00;;;-3.10;99.90;;;;;;5073638;28;20185;-68
2022/12/19 01:51:24;;;;;;;260.05;110.40;;;-3.10;99.90;;;;;;5061773;28;20033;-68
2022/12/19 01:53:57;;;;;;;237.15;101.80;;;-3.10;99.90;;;;;;5054996;28;20505;-68
2022/12/19 01:56:32;;;;;;;219.30;96.05;;;-2.90;99.90;;;;;;5055004;28;20480;-68
2022/12/19 01:59:04;;;;;;;221.77;94.53;;;-3.00;99.90;;;;;;5053598;28;20463;-68
2022/12/19 02:01:30;;;;;;;228.85;98.53;;;-3.10;99.90;;;;;;5053584;28;20025;-68
2022/12/19 02:03:58;;;;;;;229.60;101.53;;;-3.10;99.90;;;;;;5053484;28;20036;-68
2022/12/19 02:06:26;;;;;;;225.00;93.75;;;-3.00;99.90;;;;;;5053801;28;20025;-68
2022/12/19 02:08:52;;;;;;;234.23;101.18;;;-2.80;99.90;;;;;;5055236;28;20036;-68
2022/12/19 02:11:18;;;;;;;239.23;100.53;;;-2.80;99.90;;;;;;5073385;28;20432;-68
2022/12/19 02:13:45;;;;;;;231.27;98.97;;;-3.00;99.90;;;;;;5073259;28;20032;-68
2022/12/19 02:16:33;;;;;;;233.85;99.43;;;-3.10;99.90;;;;;;5073526;28;20039;-68
2022/12/19 02:19:24;;;;;;;248.10;104.15;;;-3.10;99.90;;;;;;5073241;28;20512;-68
2022/12/19 02:22:07;;;;;;;263.20;108.55;;;-3.10;99.90;;;;;;5073321;28;20082;-68
2022/12/19 02:24:36;;;;;;;262.70;108.78;;;-3.10;99.90;;;;;;5073295;28;20029;-68
2022/12/19 02:27:29;;;;;;;272.13;113.57;;;-3.10;99.90;;;;;;5074214;28;20035;-68
2022/12/19 02:30:04;;;;;;;295.25;119.93;;;-3.20;99.90;;;;;;5073267;28;20028;-68
2022/12/19 02:33:02;;;;;;;314.83;126.07;;;-3.00;99.90;;;;;;5073084;28;20430;-68
2022/12/19 02:35:44;;;;;;;345.70;138.63;;;-3.00;99.90;;;;;;5073352;28;20047;-68
2022/12/19 02:38:31;;;;;;;337.73;135.10;;;-2.90;99.90;;;;;;5073047;28;20029;-68
2022/12/19 02:41:03;;;;;;;331.23;128.32;;;-2.90;99.90;;;;;;5073177;28;20092;-68
2022/12/19 02:43:34;;;;;;;314.48;127.68;;;-2.90;99.90;;;;;;5072584;28;20385;-68
2022/12/19 02:46:04;;;;;;;301.17;123.13;;;-2.70;99.90;;;;;;5073094;28;20520;-68
2022/12/19 02:48:33;;;;;;;304.05;125.68;;;-2.60;99.90;;;;;;5073038;28;20056;-68
2022/12/19 02:50:59;;;;;;;286.17;114.63;;;-2.60;99.90;;;;;;5062682;28;20037;-68
2022/12/19 02:53:25;;;;;;;468.85;174.27;;;-2.40;99.90;;;;;;5053074;28;20032;-68
2022/12/19 02:56:14;;;;;;;;;;;-2.40;99.90;;;;;;5053293;28;20028;-69
2022/12/19 02:59:04;;;;;;;428.02;153.68;;;-2.50;99.90;;;;;;5052978;28;19915;-68
2022/12/19 03:01:36;;;;;;;428.30;154.38;;;-2.40;99.90;;;;;;5052583;28;20103;-68
2022/12/19 03:04:25;;;;;;;393.48;145.75;;;-2.30;99.90;;;;;;5052911;28;20375;-69
2022/12/19 03:07:11;;;;;;;357.15;134.13;;;-2.20;99.90;;;;;;5052837;28;20064;-69
2022/12/19 03:09:54;;;;;;;284.48;112.90;;;-2.10;99.90;;;;;;5060732;28;20366;-68
2022/12/19 03:12:39;;;;;;;258.10;99.65;;;-2.00;99.90;;;;;;5072917;28;20039;-69
2022/12/19 03:15:09;;;;;;;241.50;96.88;;;-1.90;99.90;;;;;;5072878;28;20027;-68
2022/12/19 03:17:37;;;;;;;281.30;105.03;;;-1.80;99.90;;;;;;5072549;28;20340;-68
2022/12/19 03:20:44;;;;;;;315.48;123.80;;;-1.70;99.90;;;;;;5072793;28;20506;-68
2022/12/19 03:23:11;;;;;;;339.33;132.02;;;-1.90;99.90;;;;;;5073509;28;20037;-68
2022/12/19 03:25:39;;;;;;;386.60;141.68;;;-1.80;99.90;;;;;;5073837;28;20068;-69
2022/12/19 03:28:10;;;;;;;388.02;146.43;;;-1.70;99.90;;;;;;5074033;28;20393;-69
2022/12/19 03:30:40;;;;;;;397.33;144.77;;;-1.70;99.90;;;;;;5073666;28;20028;-68
2022/12/19 03:33:08;;;;;;;315.98;123.13;;;-1.70;99.90;;;;;;5073881;28;20029;-69
2022/12/19 03:35:36;;;;;;;261.63;103.55;;;-1.70;99.90;;;;;;5073802;28;20430;-68
2022/12/19 03:38:04;;;;;;;267.52;105.85;;;-1.70;99.90;;;;;;5073769;28;20107;-69
2022/12/19 03:40:33;;;;;;;259.90;104.95;;;-1.70;99.90;;;;;;5073942;28;20149;-69
2022/12/19 03:43:08;;;;;;;320.23;130.82;;;-1.60;99.90;;;;;;5073852;28;20527;-69
2022/12/19 03:46:03;;;;;;;318.58;132.63;;;-1.40;99.90;;;;;;5073655;28;20036;-68
2022/12/19 03:48:41;;;;;;;346.92;145.60;;;-1.40;99.90;;;;;;5073919;28;20039;-69
2022/12/19 03:51:12;;;;;;;356.63;143.43;;;-1.50;99.90;;;;;;5062404;28;20033;-68
2022/12/19 03:54:12;;;;;;;341.52;139.88;;;-1.50;99.90;;;;;;5053646;28;20021;-68
2022/12/19 03:56:48;;;;;;;329.65;135.57;;;-1.60;99.90;;;;;;5057116;28;20059;-69
2022/12/19 03:59:30;;;;;;;336.73;141.43;;;-1.50;99.90;;;;;;5057171;28;20029;-69
2022/12/19 04:01:57;;;;;;;313.08;130.30;;;-1.50;99.90;;;;;;5055755;28;20036;-69
2022/12/19 04:04:25;;;;;;;319.85;134.85;;;-1.50;99.90;;;;;;5057191;28;20029;-69
2022/12/19 04:06:52;;;;;;;296.45;129.55;;;-1.50;99.90;;;;;;5056972;28;20355;-68
2022/12/19 04:09:21;;;;;;;293.08;123.50;;;-1.70;99.90;;;;;;5062462;28;20039;-69
2022/12/19 04:11:52;;;;;;;296.77;122.75;;;-1.70;99.90;;;;;;5077143;28;20075;-69
2022/12/19 04:14:33;;;;;;;276.50;116.28;;;-1.60;99.90;;;;;;5076654;28;20095;-69
2022/12/19 04:17:50;;;;;;;381.58;140.27;;;-1.40;99.90;;;;;;5076832;28;20067;-68
2022/12/19 04:20:21;;;;;;;451.58;156.23;;;-1.30;99.90;;;;;;5059152;28;20049;-68
2022/12/19 04:23:14;;;;;;;324.10;120.97;;;-1.30;99.90;;;;;;5076801;28;20266;-69
2022/12/19 04:25:48;;;;;;;226.23;88.50;;;-1.20;99.90;;;;;;5076446;28;20036;-69
2022/12/19 04:28:22;;;;;;;185.25;72.13;;;-1.20;99.90;;;;;;5076760;28;20035;-69
2022/12/19 04:30:49;;;;;;;194.57;78.35;;;-1.20;99.90;;;;;;5076688;28;20116;-69
2022/12/19 04:33:15;;;;;;;178.32;72.07;;;-1.10;99.90;;;;;;5076602;28;20092;-69
2022/12/19 04:35:41;;;;;;;189.85;70.63;;;-1.10;99.90;;;;;;5076478;28;20434;-68
2022/12/19 04:38:07;;;;;;;192.65;71.80;;;-1.20;99.90;;;;;;5076294;28;20025;-69
2022/12/19 04:40:34;;;;;;;192.55;74.82;;;-1.10;99.90;;;;;;5076488;28;20101;-69
2022/12/19 04:43:00;;;;;;;154.98;62.13;;;-1.10;99.90;;;;;;5076405;28;20024;-69
2022/12/19 04:45:26;;;;;;;148.48;59.35;;;-1.10;99.90;;;;;;5076417;28;20035;-69
2022/12/19 04:47:52;;;;;;;148.40;59.40;;;-1.10;99.90;;;;;;5076502;28;20032;-69
2022/12/19 04:50:18;;;;;;;141.65;57.38;;;-1.10;99.90;;;;;;5071780;28;20017;-69
2022/12/19 04:52:43;;;;;;;137.65;55.30;;;-1.10;99.90;;;;;;5056332;28;20021;-69
2022/12/19 04:55:09;;;;;;;152.68;59.05;;;-1.00;99.90;;;;;;5056093;28;20112;-69
2022/12/19 04:57:35;;;;;;;162.85;61.30;;;-1.00;99.90;;;;;;5056087;28;20040;-69
2022/12/19 05:00:03;;;;;;;159.25;61.30;;;-1.00;99.90;;;;;;5056163;28;20036;-69
2022/12/19 05:02:29;;;;;;;143.57;57.70;;;-1.00;99.90;;;;;;5054553;28;20039;-69
2022/12/19 05:04:55;;;;;;;140.32;55.92;;;-0.90;99.90;;;;;;5055980;28;20107;-69
2022/12/19 05:07:21;;;;;;;138.73;55.63;;;-0.90;99.90;;;;;;5055366;28;20043;-69
2022/12/19 05:09:47;;;;;;;129.05;52.40;;;-0.80;99.90;;;;;;5065111;28;20025;-69
2022/12/19 05:12:13;;;;;;;132.68;56.08;;;-0.80;99.90;;;;;;5075887;28;20099;-69
2022/12/19 05:14:39;;;;;;;159.57;60.45;;;-0.70;99.90;;;;;;5075504;28;20051;-69
2022/12/19 05:17:05;;;;;;;133.18;53.70;;;-0.70;99.90;;;;;;5075546;28;20051;-68
2022/12/19 05:19:31;;;;;;;127.57;55.67;;;-0.70;99.90;;;;;;5074499;28;20039;-69
2022/12/19 05:21:57;;;;;;;124.38;52.47;;;-0.80;99.90;;;;;;5075547;28;20047;-69
2022/12/19 05:24:23;;;;;;;123.57;51.70;;;-0.80;99.90;;;;;;5075475;28;20043;-69
2022/12/19 05:26:49;;;;;;;128.85;54.25;;;-0.80;99.90;;;;;;5075422;28;20125;-69
2022/12/19 05:29:16;;;;;;;144.85;56.83;;;-0.60;99.90;;;;;;5075423;28;20036;-69
2022/12/19 05:31:41;;;;;;;149.82;62.63;;;-0.80;99.90;;;;;;5075221;28;20494;-69
2022/12/19 05:34:08;;;;;;;158.70;61.58;;;-0.90;99.90;;;;;;5075370;28;20021;-69
2022/12/19 05:36:34;;;;;;;140.05;58.80;;;-0.90;99.90;;;;;;5075123;28;20103;-69
2022/12/19 05:39:00;;;;;;;140.48;58.42;;;-0.90;99.90;;;;;;5075115;28;20024;-69
2022/12/19 05:41:26;;;;;;;152.77;60.65;;;-0.80;99.90;;;;;;5075181;28;20571;-69
2022/12/19 05:43:54;;;;;;;151.73;63.03;;;-0.80;99.90;;;;;;5075132;28;20082;-69
2022/12/19 05:46:20;;;;;;;162.40;63.47;;;-0.70;99.90;;;;;;5075066;28;20039;-69
2022/12/19 05:48:47;;;;;;;169.18;67.88;;;-0.60;99.90;;;;;;5075119;28;20052;-69
2022/12/19 05:51:13;;;;;;;166.52;70.00;;;-0.50;99.90;;;;;;5062973;28;20032;-69
2022/12/19 05:53:40;;;;;;;175.82;69.95;;;-0.60;99.90;;;;;;5054918;28;20029;-69
2022/12/19 05:56:15;;;;;;;169.27;69.03;;;-0.60;99.90;;;;;;5055001;28;20032;-69
2022/12/19 05:58:42;;;;;;;180.43;72.13;;;-0.70;99.90;;;;;;5054889;28;20033;-69
2022/12/19 06:01:20;;;;;;;200.88;78.43;;;-0.60;99.90;;;;;;5054543;28;20029;-69
2022/12/19 06:03:47;;;;;;;202.63;83.95;;;-0.50;99.90;;;;;;5054757;28;20033;-69
2022/12/19 06:06:16;;;;;;;203.32;81.15;;;-0.80;99.90;;;;;;5054834;28;20056;-69
2022/12/19 06:08:42;;;;;;;158.80;63.22;;;-0.70;99.90;;;;;;5055409;28;20025;-69
2022/12/19 06:11:10;;;;;;;193.25;81.38;;;-0.70;99.90;;;;;;5074583;28;20059;-69
2022/12/19 06:13:37;;;;;;;196.02;79.38;;;-0.80;99.90;;;;;;5074217;28;20032;-69
2022/12/19 06:16:06;;;;;;;190.50;80.10;;;-0.70;99.90;;;;;;5074877;28;20469;-69
2022/12/19 06:18:32;;;;;;;190.40;79.38;;;-0.70;99.90;;;;;;5073418;28;20101;-69
2022/12/19 06:21:03;;;;;;;174.82;71.95;;;-0.80;99.90;;;;;;5074421;28;20032;-69
2022/12/19 06:23:31;;;;;;;166.43;67.45;;;-0.70;99.90;;;;;;5074487;28;20031;-69
2022/12/19 06:25:58;;;;;;;139.07;57.92;;;-0.80;99.90;;;;;;5053916;28;20048;-69
2022/12/19 06:28:26;;;;;;;144.07;57.00;;;-1.00;99.90;;;;;;5053889;28;20071;-69
2022/12/19 06:30:54;;;;;;;133.52;55.63;;;-1.00;99.90;;;;;;5056858;28;20039;-69
2022/12/19 06:33:20;;;;;;;144.10;55.95;;;-0.90;99.90;;;;;;5054525;28;20021;-69
2022/12/19 06:35:46;;;;;;;129.60;54.35;;;-0.70;99.90;;;;;;5054899;28;20074;-70
2022/12/19 06:38:12;;;;;;;135.68;57.15;;;-0.60;99.90;;;;;;5053987;28;20025;-70
2022/12/19 06:43:31;;;;;;;121.55;51.53;;;-0.70;99.90;;;;;;5054038;28;20032;-69
2022/12/19 06:45:57;;;;;;;148.85;62.58;;;-0.60;99.90;;;;;;5057531;28;20124;-70
2022/12/19 06:48:23;;;;;;;134.07;56.42;;;-0.50;99.90;;;;;;5066096;28;20036;-70
2022/12/19 06:50:49;;;;;;;143.50;57.35;;;-0.40;99.90;;;;;;5049518;28;20025;-69
2022/12/19 06:53:18;;;;;;;145.65;58.05;;;-0.40;99.90;;;;;;5049920;28;20134;-69
2022/12/19 06:55:46;;;;;;;170.52;68.25;;;-0.50;99.90;;;;;;5053147;28;20059;-70
2022/12/19 06:58:12;;;;;;;192.77;76.30;;;-0.30;99.90;;;;;;5055604;28;20055;-69
2022/12/19 07:00:38;;;;;;;185.68;76.35;;;-0.40;99.90;;;;;;5059337;28;20033;-69
2022/12/19 07:03:06;;;;;;;193.82;75.15;;;-0.40;99.90;;;;;;5055555;28;20017;-69
2022/12/19 07:05:33;;;;;;;206.98;79.20;;;-0.40;99.90;;;;;;5060664;28;20041;-69
2022/12/19 07:08:03;;;;;;;200.45;81.35;;;-0.40;99.90;;;;;;5064043;28;20029;-70
2022/12/19 07:10:29;;;;;;;277.88;108.35;;;-0.30;99.90;;;;;;5059164;28;20029;-69
2022/12/19 07:12:55;;;;;;;260.23;104.57;;;-0.20;99.90;;;;;;5066622;28;20431;-70
2022/12/19 07:15:21;;;;;;;244.80;97.35;;;-0.10;99.90;;;;;;5057525;28;20060;-70
2022/12/19 07:17:47;;;;;;;220.05;89.65;;;-0.30;99.90;;;;;;5079780;28;20508;-70
2022/12/19 07:20:18;;;;;;;201.55;81.18;;;-0.20;99.90;;;;;;5059159;28;20028;-70
2022/12/19 07:22:44;;;;;;;211.88;85.30;;;-0.10;99.90;;;;;;5055406;28;20667;-70
2022/12/19 07:25:10;;;;;;;201.40;76.85;;;-0.20;99.90;;;;;;5055613;28;20473;-71
2022/12/19 07:27:36;;;;;;;177.15;71.22;;;-0.10;99.90;;;;;;5050619;28;20032;-70
2022/12/19 07:30:05;;;;;;;185.85;72.55;;;-0.40;99.90;;;;;;5052134;28;20033;-71
2022/12/19 07:32:31;;;;;;;169.20;70.57;;;-0.40;99.90;;;;;;5050040;28;20021;-70
2022/12/19 07:34:57;;;;;;;174.73;69.47;;;-0.40;99.90;;;;;;5056347;28;20029;-70
2022/12/19 07:37:22;;;;;;;157.63;68.72;;;-0.30;99.90;;;;;;5054858;28;20040;-69
2022/12/19 07:39:48;;;;;;;165.75;69.15;;;-0.40;99.90;;;;;;5044565;28;20029;-70
2022/12/19 07:42:14;;;;;;;158.30;66.13;;;-0.40;99.90;;;;;;5057305;28;20583;-70
2022/12/19 07:44:40;;;;;;;172.38;71.90;;;-0.30;99.90;;;;;;5056513;28;20064;-69
2022/12/19 07:47:09;;;;;;;173.80;74.38;;;-0.10;99.90;;;;;;5056626;28;20039;-70
2022/12/19 07:49:35;;;;;;;227.00;86.65;;;-0.20;99.90;;;;;;5056012;28;20028;-71
2022/12/19 07:52:01;;;;;;;189.43;78.80;;;-0.30;99.90;;;;;;5056772;28;20087;-71
2022/12/19 07:54:27;;;;;;;181.88;79.38;;;-0.30;99.90;;;;;;5054617;28;20021;-70
2022/12/19 07:56:53;;;;;;;164.63;70.88;;;-0.30;99.90;;;;;;5050308;28;20021;-70
2022/12/19 07:59:22;;;;;;;160.90;68.97;;;-0.20;99.90;;;;;;5056248;28;20386;-70
2022/12/19 08:01:48;;;;;;;169.40;67.50;;;-0.30;99.90;;;;;;5056583;28;20018;-70
2022/12/19 08:04:14;;;;;;;183.85;73.05;;;-0.40;99.90;;;;;;5051631;28;20028;-69
2022/12/19 08:06:40;;;;;;;186.13;78.78;;;-0.40;99.90;;;;;;5055588;28;20132;-70
2022/12/19 08:09:06;;;;;;;201.13;80.88;;;-0.30;99.90;;;;;;5060300;28;20017;-70
2022/12/19 08:11:32;;;;;;;214.00;90.00;;;-0.20;99.90;;;;;;5077492;28;20478;-70
2022/12/19 08:13:58;;;;;;;221.07;92.38;;;-0.20;99.90;;;;;;5053902;28;20112;-70
2022/12/19 08:16:25;;;;;;;207.70;84.80;;;-0.10;99.90;;;;;;5054832;28;20021;-70
2022/12/19 08:18:52;;;;;;;191.32;82.63;;;0.10;99.90;;;;;;5055325;28;20538;-70
2022/12/19 08:21:19;;;;;;;201.93;74.97;;;0.20;99.90;;;;;;5052225;28;20459;-70
2022/12/19 08:23:45;;;;;;;238.65;90.25;;;0.40;99.90;;;;;;5056596;28;20029;-70
2022/12/19 08:26:14;;;;;;;197.15;77.45;;;0.50;99.90;;;;;;5052009;28;20544;-70
2022/12/19 08:28:40;;;;;;;256.25;97.25;;;0.60;99.90;;;;;;5068547;28;20033;-70
2022/12/19 08:31:15;;;;;;;171.68;72.45;;;0.50;99.90;;;;;;5053717;28;20550;-70
2022/12/19 08:33:40;;;;;;;158.02;68.68;;;0.60;99.90;;;;;;5054520;28;20028;-70
2022/12/19 08:36:11;;;;;;;158.52;68.88;;;0.50;99.90;;;;;;5055598;28;20028;-70
2022/12/19 08:38:38;;;;;;;;;;;0.40;99.90;;;;;;5059113;28;20024;-70
2022/12/19 08:41:05;;;;;;;165.40;64.00;;;0.40;99.90;;;;;;5055443;28;20493;-63
2022/12/19 08:43:31;;;;;;;150.10;64.85;;;0.40;99.90;;;;;;5065251;28;20112;-62
2022/12/19 08:45:57;;;;;;;151.57;65.13;;;0.20;99.90;;;;;;5055673;28;20032;-70
2022/12/19 08:48:23;;;;;;;183.50;82.20;;;0.50;99.90;;;;;;5055189;28;20044;-71
2022/12/19 08:50:55;;;;;;;147.75;62.90;;;0.60;99.90;;;;;;5054399;28;20098;-70
2022/12/19 08:53:23;;;;;;;228.15;94.13;;;0.70;99.90;;;;;;5054822;28;20021;-63
2022/12/19 08:55:56;;;;;;;151.02;63.55;;;0.70;99.90;;;;;;5047882;28;20028;-62
2022/12/19 08:58:29;;;;;;;143.10;60.97;;;0.70;99.90;;;;;;5055489;28;20017;-63
2022/12/19 09:00:59;;;;;;;134.13;59.00;;;0.60;99.90;;;;;;5054408;28;20037;-63
2022/12/19 09:03:25;;;;;;;128.45;58.85;;;0.60;99.90;;;;;;5054818;28;20033;-63
2022/12/19 09:06:03;;;;;;;126.18;56.42;;;0.70;99.90;;;;;;5054904;28;20025;-63
2022/12/19 09:08:30;;;;;;;133.20;55.08;;;0.70;99.90;;;;;;5055500;28;20025;-63
2022/12/19 09:11:11;;;;;;;123.68;53.10;;;0.90;99.90;;;;;;5053781;28;20032;-61
2022/12/19 09:13:38;;;;;;;108.18;44.47;;;0.80;99.90;;;;;;5053905;28;20052;-62
2022/12/19 09:16:21;;;;;;;129.55;54.90;;;1.00;99.90;;;;;;5053527;28;20513;-62
2022/12/19 09:18:51;;;;;;;135.45;56.42;;;1.20;99.90;;;;;;5048810;28;20048;-62
2022/12/19 09:21:22;;;;;;;129.43;57.88;;;1.40;99.90;;;;;;5055523;28;20025;-62
2022/12/19 09:23:52;;;;;;;149.55;57.30;;;1.50;99.90;;;;;;5054624;28;20025;-62
2022/12/19 09:26:20;;;;;;;147.80;58.25;;;1.40;99.90;;;;;;5049304;28;20083;-62
2022/12/19 09:28:46;;;;;;;128.57;54.03;;;1.50;99.90;;;;;;5053972;28;20459;-63
2022/12/19 09:31:15;;;;;;;120.53;53.17;;;1.40;99.90;;;;;;5054337;28;20469;-63
2022/12/19 09:33:42;;;;;;;141.10;59.00;;;1.60;99.90;;;;;;5035163;28;20025;-63
2022/12/19 09:36:12;;;;;;;114.68;52.60;;;1.60;99.90;;;;;;5035007;28;20049;-63
2022/12/19 09:38:38;;;;;;;109.45;48.58;;;1.50;99.90;;;;;;5041393;28;20033;-63
2022/12/19 09:41:15;;;;;;;125.55;53.22;;;1.40;99.90;;;;;;5054866;28;20021;-63
2022/12/19 09:43:53;;;;;;;126.47;54.63;;;1.60;99.90;;;;;;5055171;28;20067;-63
2022/12/19 09:46:25;;;;;;;121.78;50.38;;;1.70;99.90;;;;;;5053927;28;20022;-63
2022/12/19 09:48:54;;;;;;;117.80;51.00;;;1.90;99.90;;;;;;5051432;28;20025;-63
2022/12/19 09:51:28;;;;;;;116.50;45.90;;;2.00;99.90;;;;;;5054013;28;20110;-62
2022/12/19 09:54:06;;;;;;;89.60;38.33;;;2.10;99.90;;;;;;5054390;28;20024;-62
2022/12/19 09:56:37;;;;;;;78.60;35.33;;;2.10;99.90;;;;;;5052850;28;20040;-63
2022/12/19 09:59:18;;;;;;;;;;;2.00;99.90;;;;;;5053968;28;20116;-63
2022/12/19 10:01:58;;;;;;;123.00;54.40;;;2.20;99.90;;;;;;5049239;28;19915;-63
2022/12/19 10:04:26;;;;;;;114.15;50.55;;;2.20;99.90;;;;;;5054256;28;20021;-63
2022/12/19 10:06:52;;;;;;;136.05;57.53;;;2.00;99.90;;;;;;5053599;28;20131;-62
2022/12/19 10:09:22;;;;;;;156.30;68.28;;;2.20;99.90;;;;;;5059708;28;20067;-63
2022/12/19 10:12:09;;;;;;;176.60;73.73;;;2.20;99.90;;;;;;5074803;28;20023;-62
2022/12/19 10:15:00;;;;;;;159.95;71.50;;;2.20;99.90;;;;;;5060038;28;20043;-63
2022/12/19 10:17:35;;;;;;;172.63;66.18;;;2.00;99.90;;;;;;5052457;28;20142;-62
2022/12/19 10:20:46;;;;;;;162.80;71.72;;;2.10;99.90;;;;;;5047183;28;20120;-62
2022/12/19 10:24:04;;;;;;;165.55;71.28;;;2.20;99.90;;;;;;5044730;28;20106;-63
2022/12/19 10:26:50;;;;;;;154.48;68.57;;;2.30;99.90;;;;;;5047540;28;20044;-63
2022/12/19 10:29:35;;;;;;;141.18;63.58;;;2.40;99.90;;;;;;5053502;28;20017;-63
2022/12/19 10:32:19;;;;;;;156.20;65.80;;;2.60;99.90;;;;;;5046152;28;20025;-63
2022/12/19 10:34:47;;;;;;;142.38;62.05;;;2.80;99.90;;;;;;5054001;28;20023;-63
2022/12/19 10:37:38;;;;;;;141.60;60.60;;;2.80;99.90;;;;;;5054071;28;20025;-63
2022/12/19 10:40:39;;;;;;;138.38;56.80;;;3.10;99.90;;;;;;5054254;28;20116;-64
2022/12/19 10:43:15;;;;;;;148.98;62.40;;;3.40;99.90;;;;;;5042202;28;20036;-63
2022/12/19 10:45:52;;;;;;;128.50;58.00;;;3.40;99.90;;;;;;5046543;28;20778;-63
2022/12/19 10:48:21;;;;;;;131.43;59.85;;;3.50;99.90;;;;;;5053329;28;20040;-63
2022/12/19 10:50:47;;;;;;;102.03;49.10;;;3.70;99.90;;;;;;5051751;28;20028;-64
2022/12/19 10:53:15;;;;;;;144.25;58.53;;;3.80;99.90;;;;;;5053277;28;20048;-63
2022/12/19 10:55:49;;;;;;;139.27;61.33;;;3.90;99.90;;;;;;5051347;28;20083;-63
2022/12/19 10:58:20;;;;;;;126.95;60.00;;;3.80;99.90;;;;;;5033390;28;20029;-63
2022/12/19 11:01:10;;;;;;;125.20;57.55;;;3.90;99.90;;;;;;5033799;28;20104;-63
2022/12/19 11:03:46;;;;;;;134.43;57.33;;;3.90;99.90;;;;;;5034392;28;20355;-64
2022/12/19 11:06:37;;;;;;;130.98;58.22;;;3.90;99.90;;;;;;5054829;28;20056;-63
2022/12/19 11:09:28;;;;;;;142.23;59.47;;;4.10;99.90;;;;;;5060155;28;20027;-64
2022/12/19 11:12:11;;;;;;;149.10;60.75;;;4.00;99.90;;;;;;5055561;28;20059;-64
2022/12/19 11:14:41;;;;;;;145.35;57.30;;;4.20;99.90;;;;;;5055923;28;20028;-63
2022/12/19 11:17:23;;;;;;;126.13;55.15;;;4.20;99.90;;;;;;5055531;28;20049;-64
2022/12/19 11:19:48;;;;;;;144.38;63.08;;;4.30;99.70;;;;;;5057786;28;20064;-64
2022/12/19 11:22:26;;;;;;;173.15;77.50;;;4.30;98.90;;;;;;5064763;28;20056;-63
2022/12/19 11:24:54;;;;;;;149.60;64.60;;;4.20;98.50;;;;;;5062641;28;20032;-63
2022/12/19 11:27:38;;;;;;;126.97;57.03;;;4.40;98.70;;;;;;5063434;28;20024;-63
2022/12/19 11:30:13;;;;;;;115.32;52.47;;;4.40;99.00;;;;;;5069806;28;20165;-63
2022/12/19 11:32:45;;;;;;;111.80;52.33;;;4.50;97.90;;;;;;5055741;28;20036;-64
2022/12/19 11:35:21;;;;;;;120.40;57.00;;;4.40;97.80;;;;;;5063225;28;20485;-63
2022/12/19 11:37:55;;;;;;;126.22;56.33;;;4.40;97.90;;;;;;5057730;28;20078;-63
2022/12/19 11:40:45;;;;;;;130.55;59.63;;;4.40;97.90;;;;;;5068386;28;20029;-63
2022/12/19 11:43:20;;;;;;;130.50;58.80;;;4.60;98.10;;;;;;5054752;28;20455;-63
2022/12/19 11:46:07;;;;;;;124.47;56.58;;;4.60;97.10;;;;;;5056466;28;20306;-64
2022/12/19 11:48:40;;;;;;;106.35;51.88;;;4.50;96.80;;;;;;5057900;28;20467;-63
2022/12/19 11:51:20;;;;;;;111.68;56.00;;;4.40;96.80;;;;;;5055902;28;20483;-63
2022/12/19 11:54:01;;;;;;;;;;;4.40;97.00;;;;;;5056653;28;20052;-63
2022/12/19 11:56:28;;;;;;;125.88;56.33;;;4.50;97.00;;;;;;5055675;28;19912;-63
2022/12/19 11:59:11;;;;;;;142.65;65.50;;;4.50;97.90;;;;;;5056677;28;20052;-63
2022/12/19 12:02:15;;;;;;;140.18;67.53;;;4.50;97.60;;;;;;5055565;28;20437;-63
2022/12/19 12:04:43;;;;;;;129.13;56.90;;;4.60;97.80;;;;;;5062874;28;20500;-63
2022/12/19 12:07:10;;;;;;;135.85;58.65;;;4.60;96.50;;;;;;5058637;28;20383;-63
2022/12/19 12:09:59;;;;;;;133.38;64.03;;;4.50;96.60;;;;;;5064434;28;20553;-63
2022/12/19 12:12:43;;;;;;;133.43;56.38;;;4.60;98.40;;;;;;5073084;28;20028;-62
2022/12/19 12:15:25;;;;;;;146.20;61.30;;;4.50;97.30;;;;;;5053181;28;20032;-62
2022/12/19 12:18:23;;;;;;;144.70;67.95;;;4.50;97.10;;;;;;5054939;28;20100;-62
2022/12/19 12:21:07;;;;;;;133.38;57.75;;;4.60;97.80;;;;;;5052719;28;20068;-64
2022/12/19 12:23:42;;;;;;;145.38;60.15;;;4.70;97.00;;;;;;5055204;28;20024;-63
2022/12/19 12:26:24;;;;;;;129.43;57.17;;;4.70;97.20;;;;;;5056461;28;20033;-64
2022/12/19 12:29:11;;;;;;;149.40;57.97;;;4.70;96.30;;;;;;5056387;28;20033;-63
2022/12/19 12:31:55;;;;;;;154.73;58.78;;;4.50;97.10;;;;;;5055890;28;20031;-64
2022/12/19 12:34:36;;;;;;;115.72;55.22;;;4.70;96.60;;;;;;5056031;28;20593;-63
2022/12/19 12:37:30;;;;;;;119.57;55.00;;;4.80;96.40;;;;;;5053351;28;20051;-64
2022/12/19 12:40:25;;;;;;;120.35;53.05;;;4.80;96.70;;;;;;5054525;28;20025;-64
2022/12/19 12:43:19;;;;;;;100.93;49.25;;;4.80;96.10;;;;;;5051546;28;20021;-64
2022/12/19 12:45:45;;;;;;;119.90;52.38;;;4.50;96.60;;;;;;5054532;28;20041;-64